Los Angeles, CA (90035)

5:59 AM PDT on September 01, 2014 (GMT -0700)
CBS Radio, Venice and Fairfax | Change Station
CLOSE
Current Station
Personal Weather Station
Location: Los Angeles, CA
Elevation: 97 ft
Nearby Weather Stations

Elev 97 ft 34.04 °N, 118.37 °W | Updated 4 minutes ago

Overcast
Overcast
71.5 °F
Feels Like 71 °F
N
1.0
Wind Variable Wind from SSW
Gusts 1.0 mph

Today
High -- | Low -- °F
--% Chance of Precip.
Yesterday
High -- | Low -- °F
Precip. -- in
6:27 AM 7:19 PM
Waxing Crescent, 40% visible
Pressure 29.80 in
Visibility 10.0 miles
Clouds Overcast 1500 ft
Heat Index 71 °F
Dew Point 66 °F
Humidity 84%
Rainfall 0.00 in
Snow Depth Not available.
UV 0 out of 12
Pollen 7.80 out of 12
Ozone Good
Flu Activity Not available.
METAR KSMO 011051Z AUTO 00000KT 10SM OVC015 22/18 A2980 RMK AO2 SLP090 T02220178

More Conditions Fewer Conditions

Pressure 29.80 in
Visibility 10.0 miles
Clouds Overcast 1500 ft
Heat Index 71 °F
Dew Point 66 °F
Humidity 84%
Rainfall 0.00 in
Snow Depth Not available.
UV 0 out of 12
Pollen 7.80 out of 12
Ozone Good
Flu Activity Not available.
METAR KSMO 011051Z AUTO 00000KT 10SM OVC015 22/18 A2980 RMK AO2 SLP090 T02220178

More Conditions Fewer Conditions

10-Day Weather Forecast

Almanac

Astronomy

Sep. 01, 2014 Rise Set
Actual Time 6:27 AM PDT 7:19 PM PDT
Civil Twilight 6:01 AM PDT 7:44 PM PDT
Nautical Twilight 5:31 AM PDT 8:14 PM PDT
Astronomical Twilight 5:00 AM PDT 8:45 PM PDT
Moon 12:59 PM PDT 11:43 PM PDT
Length of Visible Light 13h 43m
Length of Day
12h 52m
Tomorrow will be 2m 2s shorter.
Waxing Crescent, 40% of the Moon is Illuminated
Today
Waxing Crescent
Sep 2
First Quarter
Sep 8
Full
Sep 15
Last Quarter
Sep 24
New

Today's Extremes

State Highs State Lows

Community

WunderPhotos

Upload Photos

1,749,199 photos uploaded!

Nearby

Air Quality

  Air Quality AQ Index Pollutant
Yesterday Good
OZONE
Current Good
OZONE
Monday Good
PM10
Monday Good
OZONE
Monday Good
CO
Monday Good
NO2

Snow Depth

Station Depth Elevation
Leavitt Lake 0 in 9400 ft
Leavitt Meadows 1 in 7200 ft
Summit Meadow 2 in 9122 ft
Blue Lakes 0 in 8000 ft
Monitor Pass 0 in 8350 ft

Earthquake Activity

City Distance Mag. Time & Date
Malibu, California 46 miles 2.5 8:11 AM PDT
2014-08-30
Minimum magnitude displayed is 2.5.

Coastal Water Temperatures

Place Temperature
Santa Monica Pier 71.1 °F
Los Angeles, CA 68.0 °F
La Jolla, CA 70.0 °F

Nearby Weather Stations